Granville, Vermont
Current Conditions -  °F | °C
As of 12:35 AM on Sunday 23 Nov 2014 (Local Time) from K6B0 Reporting Station
Overcast Overcast  
Wind Chill: 34°   Ceiling: 2700
Heat Index: 41°   Visibility: 10mi
Dew Point: 30°   Wind: 12mph
Humidity: 66%   Direction: 180°S
Pressure: 30"   Gusts: 17mph
Location:  43.98°N, 72.85°W
Report Text: K6B0 230535Z AUTO 18010G15KT 10SM OVC027 05/M01 A3000 RMK AO2 T00481010
Loading
Personal Weather Stations






























Interactive Weather Map New forecast layout! Learn more

10-Day Weather Forecast

Advertisements
Track Severe Weather on mobile